createdAt,value
2022-11-18T00:00:27.249Z,544.00
2022-11-18T00:00:57.175Z,546.00
2022-11-18T00:01:27.309Z,545.00
2022-11-18T00:01:57.346Z,547.00
2022-11-18T00:02:27.480Z,547.00
2022-11-18T00:02:57.529Z,546.00
2022-11-18T00:03:27.540Z,545.00
2022-11-18T00:03:57.593Z,543.00
2022-11-18T00:04:27.781Z,539.00
2022-11-18T00:04:57.804Z,542.00
2022-11-18T00:05:27.827Z,540.00
2022-11-18T00:05:57.892Z,539.00
2022-11-18T00:06:27.781Z,540.00
2022-11-18T00:06:58.251Z,540.00
2022-11-18T00:07:27.925Z,541.00
2022-11-18T00:07:57.971Z,541.00
2022-11-18T00:08:28.074Z,540.00
2022-11-18T00:08:58.093Z,540.00
2022-11-18T00:09:28.139Z,541.00
2022-11-18T00:09:58.281Z,542.00
2022-11-18T00:10:28.261Z,542.00
2022-11-18T00:10:58.303Z,543.00
2022-11-18T00:11:28.347Z,545.00
2022-11-18T00:11:58.422Z,543.00
2022-11-18T00:12:28.409Z,543.00
2022-11-18T00:12:58.524Z,544.00
2022-11-18T00:13:28.582Z,542.00
2022-11-18T00:13:58.626Z,542.00
2022-11-18T00:14:28.648Z,540.00
2022-11-18T00:14:58.706Z,541.00
2022-11-18T00:15:31.691Z,540.00
2022-11-18T00:15:58.835Z,540.00
2022-11-18T00:16:28.873Z,541.00
2022-11-18T00:16:58.938Z,541.00
2022-11-18T00:17:28.928Z,541.00
2022-11-18T00:17:58.942Z,540.00
2022-11-18T00:18:29.031Z,541.00
2022-11-18T00:18:59.083Z,541.00
2022-11-18T00:19:29.111Z,541.00
2022-11-18T00:19:59.232Z,541.00
2022-11-18T00:20:29.258Z,541.00
2022-11-18T00:20:59.166Z,542.00
2022-11-18T00:21:29.186Z,542.00
2022-11-18T00:21:59.211Z,541.00
2022-11-18T00:22:30.108Z,541.00
2022-11-18T00:22:59.367Z,540.00
2022-11-18T00:23:29.437Z,543.00
2022-11-18T00:23:59.470Z,543.00
2022-11-18T00:24:29.529Z,546.00
2022-11-18T00:24:59.595Z,544.00
2022-11-18T00:25:29.539Z,544.00
2022-11-18T00:25:59.637Z,542.00
2022-11-18T00:26:29.564Z,541.00
2022-11-18T00:26:59.716Z,540.00
2022-11-18T00:27:29.673Z,540.00
2022-11-18T00:27:59.725Z,539.00
2022-11-18T00:28:29.785Z,540.00
2022-11-18T00:28:59.773Z,540.00
2022-11-18T00:29:29.851Z,538.00
2022-11-18T00:29:59.891Z,540.00
2022-11-18T00:30:29.926Z,539.00
2022-11-18T00:30:59.956Z,538.00
2022-11-18T00:31:30.004Z,537.00
2022-11-18T00:32:00.007Z,538.00
2022-11-18T00:32:30.054Z,539.00
2022-11-18T00:33:00.088Z,541.00
2022-11-18T00:33:30.172Z,541.00
2022-11-18T00:34:00.192Z,541.00
2022-11-18T00:34:30.203Z,541.00
2022-11-18T00:35:00.347Z,542.00
2022-11-18T00:35:30.398Z,541.00
2022-11-18T00:36:00.492Z,540.00
2022-11-18T00:36:30.441Z,538.00
2022-11-18T00:37:00.432Z,537.00
2022-11-18T00:37:30.452Z,537.00
2022-11-18T00:38:00.520Z,536.00
2022-11-18T00:38:30.581Z,536.00
2022-11-18T00:39:00.580Z,537.00
2022-11-18T00:39:30.583Z,537.00
2022-11-18T00:40:00.951Z,539.00
2022-11-18T00:40:30.820Z,538.00
2022-11-18T00:41:00.836Z,538.00
2022-11-18T00:41:30.855Z,537.00
2022-11-18T00:42:00.910Z,538.00
2022-11-18T00:42:30.920Z,538.00
2022-11-18T00:43:00.913Z,538.00
2022-11-18T00:43:30.908Z,533.00
2022-11-18T00:44:05.092Z,535.00
2022-11-18T00:44:31.054Z,535.00
2022-11-18T00:45:01.081Z,534.00
2022-11-18T00:45:31.161Z,533.00
2022-11-18T00:46:01.159Z,531.00
2022-11-18T00:46:31.179Z,533.00
2022-11-18T00:47:01.321Z,533.00
2022-11-18T00:47:31.416Z,534.00
2022-11-18T00:48:01.528Z,535.00
2022-11-18T00:48:31.641Z,533.00
2022-11-18T00:49:01.793Z,533.00
2022-11-18T00:49:31.788Z,534.00
2022-11-18T00:50:01.805Z,533.00
2022-11-18T00:50:31.884Z,531.00
2022-11-18T00:51:01.994Z,532.00
2022-11-18T00:51:31.977Z,533.00
2022-11-18T00:52:02.076Z,533.00
2022-11-18T00:52:32.204Z,530.00
2022-11-18T00:53:02.284Z,532.00
2022-11-18T00:53:32.288Z,534.00
2022-11-18T00:54:02.472Z,534.00
2022-11-18T00:54:32.469Z,534.00
2022-11-18T00:55:02.498Z,534.00
2022-11-18T00:55:32.559Z,536.00
2022-11-18T00:56:02.707Z,537.00
2022-11-18T00:56:32.592Z,541.00
2022-11-18T00:57:02.698Z,542.00
2022-11-18T00:57:32.718Z,543.00
2022-11-18T00:58:02.740Z,544.00
2022-11-18T00:58:32.735Z,542.00
2022-11-18T00:59:02.823Z,541.00
2022-11-18T00:59:32.825Z,540.00
2022-11-18T01:00:02.878Z,541.00
2022-11-18T01:00:33.024Z,540.00
2022-11-18T01:01:03.127Z,541.00
2022-11-18T01:01:33.266Z,541.00
2022-11-18T01:02:03.221Z,538.00
2022-11-18T01:02:33.234Z,535.00
2022-11-18T01:03:03.311Z,536.00
2022-11-18T01:03:33.345Z,534.00
2022-11-18T01:04:03.409Z,535.00
2022-11-18T01:04:33.499Z,535.00
2022-11-18T01:05:03.501Z,535.00
2022-11-18T01:05:33.504Z,534.00
2022-11-18T01:06:03.700Z,534.00
2022-11-18T01:06:33.571Z,534.00
2022-11-18T01:07:03.729Z,535.00
2022-11-18T01:07:33.722Z,535.00
2022-11-18T01:08:03.712Z,534.00
2022-11-18T01:08:33.734Z,531.00
2022-11-18T01:09:03.738Z,530.00
2022-11-18T01:09:33.734Z,531.00
2022-11-18T01:10:03.763Z,532.00
2022-11-18T01:10:33.876Z,532.00
2022-11-18T01:11:03.891Z,532.00
2022-11-18T01:11:33.910Z,533.00
2022-11-18T01:12:03.962Z,533.00
2022-11-18T01:12:33.977Z,533.00
2022-11-18T01:13:04.054Z,533.00
2022-11-18T01:13:34.101Z,531.00
2022-11-18T01:14:04.049Z,529.00
2022-11-18T01:14:34.081Z,530.00
2022-11-18T01:15:04.160Z,530.00
2022-11-18T01:15:34.200Z,529.00
2022-11-18T01:16:04.205Z,530.00
2022-11-18T01:16:34.220Z,530.00
2022-11-18T01:17:04.265Z,531.00
2022-11-18T01:17:34.245Z,530.00
2022-11-18T01:18:04.285Z,529.00
2022-11-18T01:18:34.300Z,530.00
2022-11-18T01:19:04.290Z,528.00
2022-11-18T01:19:34.508Z,529.00
2022-11-18T01:20:04.518Z,527.00
2022-11-18T01:20:34.521Z,527.00
2022-11-18T01:21:04.598Z,527.00
2022-11-18T01:21:34.605Z,528.00
2022-11-18T01:22:04.629Z,527.00
2022-11-18T01:22:34.646Z,528.00
2022-11-18T01:23:04.646Z,530.00
2022-11-18T01:23:34.704Z,527.00
2022-11-18T01:24:04.660Z,526.00
2022-11-18T01:24:34.846Z,524.00
2022-11-18T01:25:04.871Z,525.00
2022-11-18T01:25:34.915Z,526.00
2022-11-18T01:26:04.940Z,529.00
2022-11-18T01:26:34.960Z,529.00
2022-11-18T01:27:05.015Z,530.00
2022-11-18T01:27:35.011Z,532.00
2022-11-18T01:28:05.088Z,532.00
2022-11-18T01:28:35.099Z,531.00
2022-11-18T01:29:05.253Z,528.00
2022-11-18T01:29:35.298Z,525.00
2022-11-18T01:30:05.344Z,523.00
2022-11-18T01:30:35.387Z,525.00
2022-11-18T01:31:05.477Z,526.00
2022-11-18T01:31:35.423Z,526.00
2022-11-18T01:32:35.442Z,527.00
2022-11-18T01:33:05.490Z,528.00
2022-11-18T01:33:35.622Z,528.00
2022-11-18T01:34:05.681Z,529.00
2022-11-18T01:34:35.727Z,530.00
2022-11-18T01:35:05.799Z,529.00
2022-11-18T01:35:35.872Z,530.00
2022-11-18T01:36:05.896Z,531.00
2022-11-18T01:36:35.925Z,531.00
2022-11-18T01:37:05.945Z,534.00
2022-11-18T01:37:35.987Z,534.00
2022-11-18T01:38:05.996Z,534.00
2022-11-18T01:38:36.066Z,534.00
2022-11-18T01:39:06.161Z,533.00
2022-11-18T01:39:36.178Z,532.00
2022-11-18T01:40:06.200Z,530.00
2022-11-18T01:40:36.247Z,527.00
2022-11-18T01:41:06.304Z,527.00
2022-11-18T01:41:36.382Z,529.00
2022-11-18T01:42:06.389Z,527.00
2022-11-18T01:42:36.416Z,528.00
2022-11-18T01:43:06.436Z,527.00
2022-11-18T01:43:36.467Z,527.00
2022-11-18T01:44:06.471Z,527.00
2022-11-18T01:44:36.483Z,527.00
2022-11-18T01:45:06.536Z,532.00
2022-11-18T01:45:36.540Z,533.00
2022-11-18T01:46:06.574Z,532.00
2022-11-18T01:46:36.766Z,531.00
2022-11-18T01:47:06.702Z,533.00
2022-11-18T01:47:36.758Z,533.00
2022-11-18T01:48:06.742Z,533.00
2022-11-18T01:48:36.743Z,532.00
2022-11-18T01:49:06.825Z,529.00
2022-11-18T01:49:36.946Z,531.00
2022-11-18T01:50:07.060Z,531.00
2022-11-18T01:50:37.151Z,529.00
2022-11-18T01:51:07.259Z,529.00
2022-11-18T01:51:37.363Z,526.00
2022-11-18T01:52:07.402Z,525.00
2022-11-18T01:52:37.543Z,525.00
2022-11-18T01:53:07.624Z,526.00
2022-11-18T01:53:37.594Z,526.00
2022-11-18T01:54:07.627Z,528.00
2022-11-18T01:54:37.760Z,532.00
2022-11-18T01:55:07.765Z,533.00
2022-11-18T01:55:37.751Z,533.00
2022-11-18T01:56:07.911Z,532.00
2022-11-18T01:56:38.200Z,530.00
2022-11-18T01:57:08.138Z,527.00
2022-11-18T01:57:38.032Z,527.00
2022-11-18T01:58:08.120Z,526.00
2022-11-18T01:58:38.377Z,527.00
2022-11-18T01:59:08.137Z,526.00
2022-11-18T01:59:38.311Z,528.00
2022-11-18T02:00:08.331Z,529.00
2022-11-18T02:00:38.327Z,524.00
2022-11-18T02:01:08.403Z,524.00
2022-11-18T02:01:38.533Z,526.00
2022-11-18T02:02:08.428Z,525.00
2022-11-18T02:02:38.554Z,524.00
2022-11-18T02:03:08.541Z,523.00
2022-11-18T02:03:38.676Z,524.00
2022-11-18T02:04:08.951Z,524.00
2022-11-18T02:04:38.822Z,523.00
2022-11-18T02:05:08.915Z,526.00
2022-11-18T02:05:38.899Z,526.00
2022-11-18T02:06:09.204Z,527.00
2022-11-18T02:06:39.045Z,527.00
2022-11-18T02:07:09.127Z,527.00
2022-11-18T02:07:39.262Z,529.00
2022-11-18T02:08:09.248Z,529.00
2022-11-18T02:08:39.368Z,529.00
2022-11-18T02:09:09.422Z,528.00
2022-11-18T02:09:39.398Z,527.00
2022-11-18T02:10:09.437Z,527.00
2022-11-18T02:10:39.426Z,525.00
2022-11-18T02:11:09.669Z,526.00
2022-11-18T02:11:39.554Z,525.00
2022-11-18T02:12:09.567Z,526.00
2022-11-18T02:12:39.477Z,526.00
2022-11-18T02:13:09.520Z,527.00
2022-11-18T02:13:39.532Z,526.00
2022-11-18T02:14:09.563Z,526.00
2022-11-18T02:14:39.669Z,525.00
2022-11-18T02:15:09.841Z,525.00
2022-11-18T02:15:39.812Z,524.00
2022-11-18T02:16:09.810Z,521.00
2022-11-18T02:16:39.919Z,521.00
2022-11-18T02:17:09.956Z,522.00
2022-11-18T02:17:40.020Z,522.00
2022-11-18T02:18:10.009Z,522.00
2022-11-18T02:18:40.193Z,522.00
2022-11-18T02:19:10.262Z,522.00
2022-11-18T02:19:40.309Z,520.00
2022-11-18T02:20:10.362Z,519.00
2022-11-18T02:20:40.384Z,519.00
2022-11-18T02:21:10.420Z,519.00
2022-11-18T02:21:40.431Z,521.00
2022-11-18T02:22:10.452Z,523.00
2022-11-18T02:22:40.486Z,522.00
2022-11-18T02:23:10.475Z,524.00
2022-11-18T02:23:40.601Z,525.00
2022-11-18T02:24:10.602Z,525.00
2022-11-18T02:24:40.623Z,526.00
2022-11-18T02:25:10.634Z,525.00
2022-11-18T02:25:40.662Z,525.00
2022-11-18T02:26:10.674Z,526.00
2022-11-18T02:26:40.681Z,526.00
2022-11-18T02:27:10.809Z,526.00
2022-11-18T02:27:40.799Z,526.00
2022-11-18T02:28:10.813Z,527.00
2022-11-18T02:28:40.866Z,527.00
2022-11-18T02:29:10.886Z,527.00
2022-11-18T02:29:40.939Z,527.00
2022-11-18T02:30:10.986Z,525.00
2022-11-18T02:30:40.978Z,524.00
2022-11-18T02:31:10.991Z,520.00
2022-11-18T02:31:41.026Z,520.00
2022-11-18T02:32:11.056Z,521.00
2022-11-18T02:32:41.063Z,521.00
2022-11-18T02:33:11.055Z,522.00
2022-11-18T02:33:41.106Z,522.00
2022-11-18T02:34:11.171Z,521.00
2022-11-18T02:34:41.179Z,521.00
2022-11-18T02:35:11.173Z,521.00
2022-11-18T02:35:41.200Z,521.00
2022-11-18T02:36:11.241Z,521.00
2022-11-18T02:36:41.294Z,523.00
2022-11-18T02:37:11.339Z,524.00
2022-11-18T02:37:41.368Z,522.00
2022-11-18T02:38:11.374Z,521.00
2022-11-18T02:38:41.372Z,521.00
2022-11-18T02:39:11.394Z,518.00
2022-11-18T02:39:41.399Z,518.00
2022-11-18T02:40:11.392Z,519.00
2022-11-18T02:40:41.414Z,519.00
2022-11-18T02:41:11.462Z,518.00
2022-11-18T02:41:41.494Z,520.00
2022-11-18T02:42:11.492Z,519.00
2022-11-18T02:42:41.500Z,520.00
2022-11-18T02:43:11.511Z,521.00
2022-11-18T02:43:41.531Z,518.00
2022-11-18T02:44:11.555Z,516.00
2022-11-18T02:44:41.598Z,516.00
2022-11-18T02:45:11.619Z,517.00
2022-11-18T02:45:41.644Z,518.00
2022-11-18T02:46:11.732Z,520.00
2022-11-18T02:46:41.749Z,519.00
2022-11-18T02:47:11.723Z,521.00
2022-11-18T02:47:41.822Z,521.00
2022-11-18T02:48:11.953Z,521.00
2022-11-18T02:48:42.067Z,520.00
2022-11-18T02:49:12.200Z,519.00
2022-11-18T02:49:42.189Z,518.00
2022-11-18T02:50:12.248Z,518.00
2022-11-18T02:50:42.314Z,518.00
2022-11-18T02:51:12.421Z,520.00
2022-11-18T02:51:42.499Z,520.00
2022-11-18T02:52:12.604Z,521.00
2022-11-18T02:52:42.684Z,520.00
2022-11-18T02:53:12.850Z,519.00
2022-11-18T02:53:42.791Z,519.00
2022-11-18T02:54:12.867Z,521.00
2022-11-18T02:54:42.978Z,522.00
2022-11-18T02:55:13.076Z,524.00
2022-11-18T02:55:43.184Z,523.00
2022-11-18T02:56:13.286Z,521.00
2022-11-18T02:56:43.350Z,519.00
2022-11-18T02:57:13.348Z,520.00
2022-11-18T02:57:43.350Z,521.00
2022-11-18T02:58:13.354Z,521.00
2022-11-18T02:58:43.344Z,522.00
2022-11-18T02:59:13.336Z,520.00
2022-11-18T02:59:43.470Z,521.00
2022-11-18T03:00:13.467Z,521.00
2022-11-18T03:00:43.460Z,522.00
2022-11-18T03:01:13.564Z,523.00
2022-11-18T03:01:43.667Z,521.00
2022-11-18T03:02:13.657Z,519.00
2022-11-18T03:02:43.686Z,516.00
2022-11-18T03:03:13.685Z,519.00
2022-11-18T03:03:43.800Z,518.00
2022-11-18T03:04:13.804Z,516.00
2022-11-18T03:04:43.926Z,515.00
2022-11-18T03:05:14.048Z,513.00
2022-11-18T03:05:44.048Z,514.00
2022-11-18T03:06:14.045Z,516.00
2022-11-18T03:06:44.527Z,519.00
2022-11-18T03:07:14.221Z,519.00
2022-11-18T03:07:44.313Z,519.00
2022-11-18T03:08:14.337Z,519.00
2022-11-18T03:08:44.319Z,519.00
2022-11-18T03:09:14.344Z,518.00
2022-11-18T03:09:44.325Z,518.00
2022-11-18T03:10:14.332Z,518.00
2022-11-18T03:10:44.462Z,518.00
2022-11-18T03:11:14.458Z,517.00
2022-11-18T03:11:44.487Z,516.00
2022-11-18T03:12:14.454Z,517.00
2022-11-18T03:12:44.592Z,517.00
2022-11-18T03:13:14.573Z,519.00
2022-11-18T03:13:44.573Z,519.00
2022-11-18T03:14:14.685Z,519.00
2022-11-18T03:14:44.843Z,519.00
2022-11-18T03:15:14.853Z,518.00
2022-11-18T03:15:44.847Z,519.00
2022-11-18T03:16:14.854Z,518.00
2022-11-18T03:16:44.852Z,518.00
2022-11-18T03:17:14.862Z,517.00
2022-11-18T03:17:44.843Z,519.00
2022-11-18T03:18:15.003Z,518.00
2022-11-18T03:18:44.998Z,518.00
2022-11-18T03:19:15.399Z,517.00
2022-11-18T03:19:45.178Z,518.00
2022-11-18T03:20:15.177Z,520.00
2022-11-18T03:20:45.184Z,522.00
2022-11-18T03:21:15.176Z,521.00
2022-11-18T03:21:45.315Z,521.00
2022-11-18T03:22:15.308Z,519.00
2022-11-18T03:22:45.314Z,517.00
2022-11-18T03:23:15.302Z,516.00
2022-11-18T03:23:45.418Z,517.00
2022-11-18T03:24:15.539Z,517.00
2022-11-18T03:24:45.715Z,518.00
2022-11-18T03:25:15.595Z,518.00
2022-11-18T03:25:45.592Z,517.00
2022-11-18T03:26:15.726Z,519.00
2022-11-18T03:26:45.708Z,516.00
2022-11-18T03:27:15.846Z,515.00
2022-11-18T03:27:45.832Z,516.00
2022-11-18T03:28:15.816Z,515.00
2022-11-18T03:28:45.949Z,516.00
2022-11-18T03:29:16.430Z,517.00
2022-11-18T03:29:46.040Z,518.00
2022-11-18T03:30:16.039Z,518.00
2022-11-18T03:30:46.043Z,518.00
2022-11-18T03:31:16.034Z,516.00
2022-11-18T03:31:46.342Z,516.00
2022-11-18T03:32:16.210Z,516.00
2022-11-18T03:32:46.209Z,514.00
2022-11-18T03:33:16.341Z,513.00
2022-11-18T03:33:46.357Z,514.00
2022-11-18T03:34:16.362Z,514.00
2022-11-18T03:34:46.446Z,511.00
2022-11-18T03:35:16.445Z,509.00
2022-11-18T03:35:46.560Z,510.00
2022-11-18T03:36:16.581Z,510.00
2022-11-18T03:36:50.099Z,510.00
2022-11-18T03:37:16.702Z,509.00
2022-11-18T03:37:46.715Z,510.00
2022-11-18T03:38:16.835Z,511.00
2022-11-18T03:38:46.835Z,513.00
2022-11-18T03:39:17.212Z,512.00
2022-11-18T03:39:47.074Z,510.00
2022-11-18T03:40:17.101Z,510.00
2022-11-18T03:40:47.103Z,509.00
2022-11-18T03:41:17.214Z,510.00
2022-11-18T03:41:47.223Z,510.00
2022-11-18T03:42:17.224Z,512.00
2022-11-18T03:42:47.255Z,512.00
2022-11-18T03:43:17.345Z,510.00
2022-11-18T03:43:47.463Z,510.00
2022-11-18T03:44:17.473Z,510.00
2022-11-18T03:44:52.221Z,510.00
2022-11-18T03:45:17.492Z,508.00
2022-11-18T03:45:47.603Z,508.00
2022-11-18T03:46:17.721Z,508.00
2022-11-18T03:46:47.870Z,509.00
2022-11-18T03:47:17.963Z,510.00
2022-11-18T03:47:48.057Z,511.00
2022-11-18T03:48:18.142Z,512.00
2022-11-18T03:48:48.221Z,512.00
2022-11-18T03:49:18.770Z,512.00
2022-11-18T03:49:48.396Z,512.00
2022-11-18T03:50:18.427Z,511.00
2022-11-18T03:50:48.515Z,510.00
2022-11-18T03:51:18.589Z,511.00
2022-11-18T03:51:48.658Z,511.00
2022-11-18T03:52:18.745Z,509.00
2022-11-18T03:52:48.838Z,507.00
2022-11-18T03:53:18.946Z,507.00
2022-11-18T03:53:49.045Z,506.00
2022-11-18T03:54:19.131Z,504.00
2022-11-18T03:54:49.222Z,503.00
2022-11-18T03:55:19.317Z,502.00
2022-11-18T03:55:49.410Z,501.00
2022-11-18T03:56:19.490Z,500.00
2022-11-18T03:56:49.635Z,499.00
2022-11-18T03:57:19.625Z,500.00
2022-11-18T03:57:49.746Z,501.00
2022-11-18T03:58:19.890Z,501.00
2022-11-18T03:58:49.854Z,502.00
2022-11-18T03:59:20.382Z,501.00
2022-11-18T03:59:50.024Z,502.00
2022-11-18T04:00:20.031Z,502.00
2022-11-18T04:00:50.056Z,505.00
2022-11-18T04:01:20.101Z,505.00
2022-11-18T04:01:50.243Z,506.00
2022-11-18T04:02:20.181Z,508.00
2022-11-18T04:02:50.186Z,508.00
2022-11-18T04:03:20.324Z,508.00
2022-11-18T04:03:50.335Z,509.00
2022-11-18T04:04:20.342Z,507.00
2022-11-18T04:04:50.345Z,506.00
2022-11-18T04:05:20.374Z,504.00
2022-11-18T04:05:50.484Z,503.00
2022-11-18T04:06:20.609Z,503.00
2022-11-18T04:06:50.607Z,504.00
2022-11-18T04:07:20.812Z,502.00
2022-11-18T04:07:50.822Z,502.00
2022-11-18T04:08:20.934Z,501.00
2022-11-18T04:08:51.071Z,500.00
2022-11-18T04:09:21.080Z,500.00
2022-11-18T04:09:51.071Z,499.00
2022-11-18T04:10:21.191Z,498.00
2022-11-18T04:10:51.308Z,499.00
2022-11-18T04:11:21.436Z,501.00
2022-11-18T04:11:51.563Z,501.00
2022-11-18T04:12:21.578Z,502.00
2022-11-18T04:12:51.581Z,503.00
2022-11-18T04:13:21.577Z,502.00
2022-11-18T04:13:51.667Z,503.00
2022-11-18T04:14:21.643Z,504.00
2022-11-18T04:14:51.662Z,504.00
2022-11-18T04:15:21.674Z,505.00
2022-11-18T04:15:51.670Z,506.00
2022-11-18T04:16:21.676Z,507.00
2022-11-18T04:16:51.673Z,507.00
2022-11-18T04:17:21.711Z,505.00
2022-11-18T04:17:51.689Z,504.00
2022-11-18T04:18:21.825Z,504.00
2022-11-18T04:18:51.857Z,505.00
2022-11-18T04:19:22.186Z,504.00
2022-11-18T04:19:51.891Z,503.00
2022-11-18T04:20:21.898Z,503.00
2022-11-18T04:20:51.905Z,504.00
2022-11-18T04:21:21.907Z,500.00
2022-11-18T04:21:51.937Z,501.00
2022-11-18T04:22:21.924Z,500.00
2022-11-18T04:22:51.920Z,502.00
2022-11-18T04:23:22.075Z,502.00
2022-11-18T04:23:52.076Z,504.00
2022-11-18T04:24:22.201Z,503.00
2022-11-18T04:24:52.196Z,503.00
2022-11-18T04:25:22.188Z,504.00
2022-11-18T04:25:52.189Z,505.00
2022-11-18T04:26:22.308Z,504.00
2022-11-18T04:26:52.307Z,502.00
2022-11-18T04:27:22.425Z,500.00
2022-11-18T04:27:52.562Z,499.00
2022-11-18T04:28:22.562Z,499.00
2022-11-18T04:28:52.558Z,500.00
2022-11-18T04:29:22.579Z,501.00
2022-11-18T04:29:52.672Z,500.00
2022-11-18T04:30:22.789Z,498.00
2022-11-18T04:30:52.796Z,499.00
2022-11-18T04:31:22.809Z,500.00
2022-11-18T04:31:52.801Z,499.00
2022-11-18T04:32:22.806Z,501.00
2022-11-18T04:32:52.867Z,501.00
2022-11-18T04:33:22.873Z,504.00
2022-11-18T04:33:52.986Z,505.00
2022-11-18T04:34:22.997Z,505.00
2022-11-18T04:34:53.122Z,506.00
2022-11-18T04:35:23.124Z,505.00
2022-11-18T04:35:53.123Z,504.00
2022-11-18T04:36:23.270Z,505.00
2022-11-18T04:36:53.266Z,507.00
2022-11-18T04:37:23.294Z,508.00
2022-11-18T04:37:53.280Z,511.00
2022-11-18T04:38:23.405Z,511.00
2022-11-18T04:38:53.408Z,512.00
2022-11-18T04:39:23.401Z,513.00
2022-11-18T04:39:53.412Z,512.00
2022-11-18T04:40:23.421Z,512.00
2022-11-18T04:40:53.424Z,513.00
2022-11-18T04:41:23.533Z,515.00
2022-11-18T04:41:53.543Z,514.00
2022-11-18T04:42:23.654Z,515.00
2022-11-18T04:42:53.657Z,516.00
2022-11-18T04:43:23.766Z,514.00
2022-11-18T04:43:53.778Z,512.00
2022-11-18T04:44:23.769Z,510.00
2022-11-18T04:44:53.793Z,508.00
2022-11-18T04:45:23.888Z,508.00
2022-11-18T04:45:53.882Z,508.00
2022-11-18T04:46:24.002Z,506.00
2022-11-18T04:46:54.126Z,504.00
2022-11-18T04:47:24.239Z,504.00
2022-11-18T04:47:58.850Z,504.00
2022-11-18T04:48:24.259Z,505.00
2022-11-18T04:48:54.264Z,504.00
2022-11-18T04:49:24.400Z,506.00
2022-11-18T04:49:54.379Z,506.00
2022-11-18T04:50:24.394Z,509.00
2022-11-18T04:50:54.400Z,508.00
2022-11-18T04:51:24.522Z,507.00
2022-11-18T04:51:54.523Z,505.00
2022-11-18T04:52:24.646Z,502.00
2022-11-18T04:52:54.636Z,502.00
2022-11-18T04:53:24.749Z,502.00
2022-11-18T04:53:54.759Z,501.00
2022-11-18T04:54:24.794Z,502.00
2022-11-18T04:54:54.792Z,500.00
2022-11-18T04:55:24.905Z,496.00
2022-11-18T04:55:54.906Z,497.00
2022-11-18T04:56:25.022Z,498.00
2022-11-18T04:56:55.016Z,498.00
2022-11-18T04:57:25.074Z,499.00
2022-11-18T04:57:55.096Z,500.00
2022-11-18T04:58:25.142Z,500.00
2022-11-18T04:58:55.201Z,501.00
2022-11-18T04:59:25.234Z,502.00
2022-11-18T04:59:55.278Z,504.00
2022-11-18T05:00:25.330Z,507.00
2022-11-18T05:00:55.422Z,507.00
2022-11-18T05:01:25.511Z,508.00
2022-11-18T05:01:55.485Z,509.00
2022-11-18T05:02:25.506Z,509.00
2022-11-18T05:02:55.542Z,510.00
2022-11-18T05:03:25.594Z,509.00
2022-11-18T05:03:55.647Z,507.00
2022-11-18T05:04:25.691Z,506.00
2022-11-18T05:04:55.758Z,507.00
2022-11-18T05:05:25.780Z,506.00
2022-11-18T05:05:55.820Z,507.00
2022-11-18T05:06:25.850Z,510.00
2022-11-18T05:06:55.918Z,510.00
2022-11-18T05:07:26.033Z,511.00
2022-11-18T05:07:55.956Z,511.00
2022-11-18T05:08:25.991Z,513.00
2022-11-18T05:08:56.035Z,513.00
2022-11-18T05:09:31.311Z,513.00
2022-11-18T05:09:56.122Z,515.00
2022-11-18T05:10:26.153Z,513.00
2022-11-18T05:10:56.190Z,514.00
2022-11-18T05:11:26.221Z,513.00
2022-11-18T05:11:56.255Z,512.00
2022-11-18T05:12:26.297Z,513.00
2022-11-18T05:12:56.337Z,513.00
2022-11-18T05:13:26.371Z,512.00
2022-11-18T05:13:56.421Z,511.00
2022-11-18T05:14:26.452Z,510.00
2022-11-18T05:14:56.481Z,509.00
2022-11-18T05:15:26.508Z,510.00
2022-11-18T05:15:56.577Z,513.00
2022-11-18T05:16:26.577Z,516.00
2022-11-18T05:16:56.637Z,517.00
2022-11-18T05:17:26.674Z,516.00
2022-11-18T05:17:56.701Z,515.00
2022-11-18T05:18:26.736Z,514.00
2022-11-18T05:18:56.784Z,512.00
2022-11-18T05:19:26.819Z,515.00
2022-11-18T05:19:56.848Z,516.00
2022-11-18T05:20:26.890Z,517.00
2022-11-18T05:20:56.931Z,516.00
2022-11-18T05:21:26.960Z,515.00
2022-11-18T05:21:56.989Z,515.00
2022-11-18T05:22:27.013Z,516.00
2022-11-18T05:22:57.050Z,513.00
2022-11-18T05:23:27.096Z,519.00
2022-11-18T05:23:57.127Z,521.00
2022-11-18T05:24:27.170Z,520.00
2022-11-18T05:24:57.201Z,519.00
2022-11-18T05:25:27.238Z,518.00
2022-11-18T05:26:02.320Z,518.00
2022-11-18T05:26:27.337Z,519.00
2022-11-18T05:26:57.373Z,518.00
2022-11-18T05:27:27.400Z,521.00
2022-11-18T05:27:57.459Z,520.00
2022-11-18T05:28:27.499Z,522.00
2022-11-18T05:28:57.532Z,523.00
2022-11-18T05:29:27.586Z,523.00
2022-11-18T05:29:57.622Z,523.00
2022-11-18T05:30:27.660Z,523.00
2022-11-18T05:30:57.719Z,523.00
2022-11-18T05:31:27.850Z,523.00
2022-11-18T05:31:57.861Z,521.00
2022-11-18T05:32:27.906Z,523.00
2022-11-18T05:32:57.956Z,522.00
2022-11-18T05:33:27.996Z,523.00
2022-11-18T05:33:58.033Z,523.00
2022-11-18T05:34:28.064Z,524.00
2022-11-18T05:34:58.087Z,525.00
2022-11-18T05:35:28.125Z,527.00
2022-11-18T05:35:58.161Z,531.00
2022-11-18T05:36:28.194Z,536.00
2022-11-18T05:36:58.221Z,538.00
2022-11-18T05:37:28.287Z,538.00
2022-11-18T05:37:58.312Z,537.00
2022-11-18T05:38:28.349Z,539.00
2022-11-18T05:38:58.382Z,539.00
2022-11-18T05:39:28.415Z,538.00
2022-11-18T05:39:58.442Z,537.00
2022-11-18T05:40:28.489Z,535.00
2022-11-18T05:40:58.530Z,533.00
2022-11-18T05:41:28.578Z,534.00
2022-11-18T05:41:58.603Z,536.00
2022-11-18T05:42:28.635Z,538.00
2022-11-18T05:42:58.680Z,538.00
2022-11-18T05:43:28.738Z,538.00
2022-11-18T05:43:58.785Z,538.00
2022-11-18T05:44:28.820Z,538.00
2022-11-18T05:44:59.214Z,538.00
2022-11-18T05:45:28.933Z,538.00
2022-11-18T05:45:58.952Z,537.00
2022-11-18T05:46:29.004Z,538.00
2022-11-18T05:46:59.055Z,542.00
2022-11-18T05:47:29.047Z,543.00
2022-11-18T05:47:59.061Z,544.00
2022-11-18T05:48:29.059Z,545.00
2022-11-18T05:48:59.064Z,545.00
2022-11-18T05:49:29.077Z,549.00
2022-11-18T05:49:59.071Z,551.00
2022-11-18T05:50:29.096Z,551.00
2022-11-18T05:50:59.079Z,554.00
2022-11-18T05:51:29.102Z,556.00
2022-11-18T05:51:59.224Z,557.00
2022-11-18T05:52:29.228Z,557.00
2022-11-18T05:52:59.236Z,555.00
2022-11-18T05:53:29.235Z,553.00
2022-11-18T05:53:59.248Z,551.00
2022-11-18T05:54:29.317Z,552.00
2022-11-18T05:54:59.357Z,553.00
2022-11-18T05:55:29.384Z,552.00
2022-11-18T05:55:59.390Z,552.00
2022-11-18T05:56:29.443Z,551.00
2022-11-18T05:56:59.433Z,550.00
2022-11-18T05:57:29.527Z,551.00
2022-11-18T05:57:59.476Z,550.00
2022-11-18T05:58:29.511Z,551.00
2022-11-18T05:58:59.576Z,550.00
2022-11-18T05:59:29.606Z,548.00
2022-11-18T05:59:59.637Z,545.00
2022-11-18T06:00:29.679Z,547.00
2022-11-18T06:00:59.716Z,545.00
2022-11-18T06:01:29.755Z,544.00
2022-11-18T06:01:59.796Z,543.00
2022-11-18T06:02:29.910Z,543.00
2022-11-18T06:02:59.886Z,541.00
2022-11-18T06:03:31.198Z,542.00
2022-11-18T06:03:59.968Z,541.00
2022-11-18T06:04:30.044Z,541.00
2022-11-18T06:05:00.061Z,542.00
2022-11-18T06:05:30.094Z,542.00
2022-11-18T06:06:00.143Z,540.00
2022-11-18T06:06:30.175Z,541.00
2022-11-18T06:07:00.285Z,540.00
2022-11-18T06:07:30.435Z,538.00
2022-11-18T06:08:00.364Z,537.00
2022-11-18T06:08:30.391Z,537.00
2022-11-18T06:09:00.424Z,535.00
2022-11-18T06:09:30.469Z,535.00
2022-11-18T06:10:05.422Z,535.00
2022-11-18T06:10:30.558Z,533.00
2022-11-18T06:11:00.597Z,533.00
2022-11-18T06:11:30.619Z,534.00
2022-11-18T06:12:00.668Z,534.00
2022-11-18T06:12:30.699Z,535.00
2022-11-18T06:13:00.748Z,538.00
2022-11-18T06:13:30.792Z,538.00
2022-11-18T06:14:00.856Z,537.00
2022-11-18T06:14:30.899Z,537.00
2022-11-18T06:15:00.926Z,535.00
2022-11-18T06:15:30.979Z,534.00